Time;durP1;ratioP1;P1;durP2;ratioP2;P2;SDS_P1;SDS_P2;PMS_P1;PMS_P2;Temp;Humidity;BMP_temperature;BMP_pressure;BME280_temperature;BME280_humidity;BME280_pressure;Samples;Min_cycle;Max_cycle;Signal;HPM_P1;HPM_P2
2023/02/09 00:01:52;;;;;;;56.28;28.90;;;;;;;-1.55;100.00;102049.94;5025194;28;20025;-73
2023/02/09 00:04:17;;;;;;;52.92;28.58;;;;;;;-1.55;100.00;102048.03;5041169;28;20060;-74
2023/02/09 00:06:43;;;;;;;53.72;28.17;;;;;;;-1.60;100.00;102053.16;5018508;28;20030;-74
2023/02/09 00:09:09;;;;;;;49.80;26.48;;;;;;;-1.57;100.00;102055.53;5001503;28;20686;-74
2023/02/09 00:14:19;;;;;;;55.55;28.35;;;;;;;-1.64;100.00;102052.69;5025115;28;20795;-73
2023/02/09 00:16:44;;;;;;;54.80;28.02;;;;;;;-1.62;100.00;102050.59;5017950;28;20053;-73
2023/02/09 00:19:10;;;;;;;57.83;29.55;;;;;;;-1.65;100.00;102063.75;5002484;28;20033;-73
2023/02/09 00:21:36;;;;;;;52.83;27.70;;;;;;;-1.66;100.00;102052.00;5034514;28;20167;-74
2023/02/09 00:24:01;;;;;;;51.75;27.55;;;;;;;-1.67;100.00;102061.22;5031524;28;20038;-73
2023/02/09 00:26:27;;;;;;;53.97;27.42;;;;;;;-1.70;100.00;102050.66;4996249;28;20032;-73
2023/02/09 00:28:52;;;;;;;55.63;28.77;;;;;;;-1.70;100.00;102055.25;5017656;28;20030;-73
2023/02/09 00:31:18;;;;;;;54.40;28.45;;;;;;;-1.73;100.00;102050.16;5001717;28;20037;-74
2023/02/09 00:33:43;;;;;;;54.95;28.75;;;;;;;-1.74;100.00;102054.75;4998890;28;20474;-74
2023/02/09 00:36:11;;;;;;;55.58;27.52;;;;;;;-1.76;100.00;102051.34;5045224;28;20520;-74
2023/02/09 00:38:36;;;;;;;51.65;27.92;;;;;;;-1.77;100.00;102051.53;5019823;28;20034;-73
2023/02/09 00:41:02;;;;;;;53.40;28.45;;;;;;;-1.81;100.00;102051.03;5028896;28;20025;-73
2023/02/09 00:43:28;;;;;;;55.63;28.25;;;;;;;-1.79;100.00;102062.59;5003118;28;20021;-73
2023/02/09 00:45:53;;;;;;;56.20;28.30;;;;;;;-1.83;100.00;102066.72;5017647;28;20025;-73
2023/02/09 00:48:19;;;;;;;53.00;28.02;;;;;;;-1.86;100.00;102062.44;5031083;28;20036;-73
2023/02/09 00:50:44;;;;;;;59.17;28.67;;;;;;;-1.87;100.00;102049.84;5043607;28;20083;-73
2023/02/09 00:53:10;;;;;;;56.83;28.92;;;;;;;-1.89;100.00;102056.50;5015473;28;20071;-73
2023/02/09 00:55:35;;;;;;;59.65;28.45;;;;;;;-1.91;100.00;102056.66;5017602;28;20021;-73
2023/02/09 00:58:01;;;;;;;58.28;29.13;;;;;;;-1.92;100.00;102051.38;5035322;28;20058;-73
2023/02/09 01:00:26;;;;;;;52.03;27.52;;;;;;;-1.94;100.00;102057.03;5009265;28;20040;-74
2023/02/09 01:02:52;;;;;;;56.65;28.98;;;;;;;-1.94;100.00;102059.75;5065211;28;20390;-73
2023/02/09 01:05:17;;;;;;;54.42;28.27;;;;;;;-1.96;100.00;102058.22;5039507;28;20506;-74
2023/02/09 01:07:43;;;;;;;59.00;28.30;;;;;;;-1.96;100.00;102055.50;5017359;28;20029;-73
2023/02/09 01:10:09;;;;;;;50.35;27.50;;;;;;;-1.98;100.00;102055.66;5009175;28;20029;-73
2023/02/09 01:12:34;;;;;;;56.95;28.92;;;;;;;-1.99;100.00;102056.69;5018237;28;20017;-74
2023/02/09 01:15:01;;;;;;;57.25;30.08;;;;;;;-2.06;100.00;102053.81;5025465;28;20033;-73
2023/02/09 01:17:27;;;;;;;53.88;27.55;;;;;;;-2.04;100.00;102053.63;5017174;28;20079;-74
2023/02/09 01:19:53;;;;;;;59.47;29.58;;;;;;;-2.06;100.00;102056.53;4984540;28;20029;-73
2023/02/09 01:22:18;;;;;;;54.20;27.77;;;;;;;-2.07;100.00;102053.97;5030564;28;20067;-74
2023/02/09 01:24:44;;;;;;;55.47;28.60;;;;;;;-2.09;100.00;102064.19;5000845;28;20406;-73
2023/02/09 01:27:09;;;;;;;52.47;28.02;;;;;;;-2.11;100.00;102063.53;5016329;28;20026;-74
2023/02/09 01:29:35;;;;;;;55.92;29.05;;;;;;;-2.15;100.00;102056.72;5053419;28;20060;-73
2023/02/09 01:32:00;;;;;;;56.45;28.77;;;;;;;-2.19;100.00;102056.22;5036257;28;20033;-73
2023/02/09 01:34:26;;;;;;;56.60;28.88;;;;;;;-2.17;100.00;102062.34;4984754;28;20029;-73
2023/02/09 01:36:51;;;;;;;56.03;28.63;;;;;;;-2.21;100.00;102063.69;5017480;28;20036;-74
2023/02/09 01:39:17;;;;;;;49.58;27.77;;;;;;;-2.22;100.00;102061.16;5043111;28;20518;-73
2023/02/09 01:41:42;;;;;;;53.90;27.77;;;;;;;-2.26;100.00;102072.41;5033999;28;20028;-74
2023/02/09 01:44:11;;;;;;;55.53;28.33;;;;;;;-2.28;100.00;102069.00;5007529;28;20132;-73
2023/02/09 01:46:36;;;;;;;54.60;27.73;;;;;;;-2.30;100.00;102064.75;5033121;28;20076;-74
2023/02/09 01:49:05;;;;;;;54.03;27.77;;;;;;;-2.32;100.00;102064.06;5027420;28;20033;-73
2023/02/09 01:51:37;;;;;;;55.50;28.48;;;;;;;-2.33;100.00;102062.34;5005801;28;20107;-73
2023/02/09 01:54:07;;;;;;;55.55;28.58;;;;;;;-2.35;100.00;102054.34;5008422;28;20437;-73
2023/02/09 01:56:33;;;;;;;53.75;28.20;;;;;;;-2.36;100.00;102051.81;5017165;28;20033;-74
2023/02/09 01:58:58;;;;;;;56.58;29.05;;;;;;;-2.36;100.00;102051.81;5010113;28;20040;-74
2023/02/09 02:01:24;;;;;;;56.67;29.00;;;;;;;-2.39;100.00;102049.44;4984304;28;20261;-73
2023/02/09 02:03:50;;;;;;;59.03;29.52;;;;;;;-2.40;100.00;102050.44;5010661;28;20040;-73
2023/02/09 02:06:16;;;;;;;57.72;29.08;;;;;;;-2.41;100.00;102046.88;5000823;28;20037;-73
2023/02/09 02:08:51;;;;;;;57.65;28.48;;;;;;;-2.39;100.00;102052.16;5016762;28;20037;-74
2023/02/09 02:11:16;;;;;;;59.72;29.52;;;;;;;-2.42;100.00;102049.75;5035016;28;20026;-74
2023/02/09 02:13:42;;;;;;;54.90;28.73;;;;;;;-2.45;100.00;102050.97;5022395;28;20030;-73
2023/02/09 02:16:18;;;;;;;58.85;29.17;;;;;;;-2.48;100.00;102054.88;5032337;28;20035;-74
2023/02/09 02:19:04;;;;;;;59.63;29.25;;;;;;;-2.48;100.00;102054.88;5032922;28;20033;-74
2023/02/09 02:21:48;;;;;;;53.10;27.13;;;;;;;-2.52;100.00;102045.34;5007360;28;20030;-74
2023/02/09 02:24:35;;;;;;;56.72;29.05;;;;;;;-2.52;100.00;102058.94;5048243;28;20044;-73
2023/02/09 02:27:02;;;;;;;56.65;29.23;;;;;;;-2.54;100.00;102052.81;5035026;28;20371;-74
2023/02/09 02:29:46;;;;;;;53.25;27.13;;;;;;;-2.57;100.00;102053.16;5003999;28;20136;-74
2023/02/09 02:32:44;;;;;;;56.13;28.50;;;;;;;-2.57;100.00;102049.59;5049742;28;20038;-74
2023/02/09 02:35:12;;;;;;;55.75;28.10;;;;;;;-2.60;100.00;102048.06;5034921;28;20037;-73
2023/02/09 02:38:01;;;;;;;55.60;27.33;;;;;;;-2.61;100.00;102051.81;5010560;28;20032;-74
2023/02/09 02:40:45;;;;;;;54.28;26.88;;;;;;;-2.61;100.00;102051.81;5034999;28;20100;-73
2023/02/09 02:43:38;;;;;;;54.45;27.38;;;;;;;-2.63;100.00;102047.56;5051978;28;20029;-73
2023/02/09 02:46:06;;;;;;;51.00;27.42;;;;;;;-2.68;100.00;102045.34;5056298;28;20481;-73
2023/02/09 02:48:40;;;;;;;52.47;27.13;;;;;;;-2.67;100.00;102041.63;5036798;28;20111;-74
2023/02/09 02:51:13;;;;;;;55.22;28.58;;;;;;;-2.70;100.00;102031.09;5031637;28;20079;-74
2023/02/09 02:53:40;;;;;;;;;;;;;;;-2.71;100.00;102029.38;5011805;28;20033;-74
2023/02/09 02:56:11;;;;;;;55.28;26.70;;;;;;;-2.74;100.00;102018.84;5033893;28;19913;-74
2023/02/09 02:58:38;;;;;;;52.55;26.92;;;;;;;-2.75;100.00;102018.00;5019697;28;20028;-73
2023/02/09 03:01:03;;;;;;;54.13;27.08;;;;;;;-2.75;100.00;102025.31;5036111;28;20107;-73
2023/02/09 03:03:33;;;;;;;53.40;27.85;;;;;;;-2.76;100.00;102021.75;5019552;28;20026;-73
2023/02/09 03:06:00;;;;;;;57.42;28.10;;;;;;;-2.78;100.00;102017.47;5017466;28;20029;-73
2023/02/09 03:08:25;;;;;;;55.17;27.35;;;;;;;-2.79;100.00;102015.75;5028456;28;20065;-74
2023/02/09 03:10:51;;;;;;;56.10;26.67;;;;;;;-2.78;100.00;102022.94;5022491;28;20035;-74
2023/02/09 03:13:25;;;;;;;53.35;27.85;;;;;;;-2.81;100.00;102009.66;5000924;28;20025;-73
2023/02/09 03:15:57;;;;;;;53.70;27.60;;;;;;;-2.85;100.00;102011.00;5052440;28;20033;-73
2023/02/09 03:18:51;;;;;;;49.67;26.30;;;;;;;-2.86;100.00;102007.44;5045815;28;20526;-74
2023/02/09 03:21:28;;;;;;;53.83;26.83;;;;;;;-2.88;100.00;102012.19;5044472;28;20505;-73
2023/02/09 03:24:05;;;;;;;53.10;26.77;;;;;;;-2.90;100.00;102013.38;5040003;28;20429;-73
2023/02/09 03:26:36;;;;;;;54.70;27.33;;;;;;;-2.94;100.00;102008.28;5035731;28;20120;-73
2023/02/09 03:29:01;;;;;;;51.15;25.67;;;;;;;-2.96;100.00;101999.44;5018266;28;20087;-74
2023/02/09 03:31:27;;;;;;;49.70;25.70;;;;;;;-2.96;100.00;101998.59;5022238;28;20032;-73
2023/02/09 03:33:55;;;;;;;52.10;25.25;;;;;;;-2.99;100.00;101997.06;5003365;28;20029;-74
2023/02/09 03:36:20;;;;;;;51.72;26.65;;;;;;;-2.97;100.00;101997.75;5011445;28;20037;-74
2023/02/09 03:38:46;;;;;;;51.90;25.55;;;;;;;-2.98;100.00;101993.34;5015797;28;20030;-73
2023/02/09 03:41:11;;;;;;;50.75;26.58;;;;;;;-2.98;100.00;101993.34;5019556;28;20068;-74
2023/02/09 03:46:21;;;;;;;53.60;27.65;;;;;;;-3.01;100.00;101990.09;5035181;28;20036;-73
2023/02/09 03:48:48;;;;;;;56.35;27.45;;;;;;;-3.03;100.00;101976.69;5018407;28;20429;-74
2023/02/09 03:51:14;;;;;;;49.50;26.88;;;;;;;-3.05;100.00;101976.00;5048228;28;20102;-73
2023/02/09 03:53:39;;;;;;;52.05;26.92;;;;;;;-3.05;100.00;101981.44;5039185;28;20026;-73
2023/02/09 03:56:09;;;;;;;48.67;25.27;;;;;;;-3.07;100.00;101979.91;5018720;28;20410;-74
2023/02/09 03:58:36;;;;;;;60.33;27.05;;;;;;;-3.09;100.00;101988.25;5018875;28;20486;-74
2023/02/09 04:01:04;;;;;;;55.40;28.33;;;;;;;-3.11;100.00;101992.97;5018272;28;20025;-74
2023/02/09 04:03:31;;;;;;;48.95;25.40;;;;;;;-3.10;100.00;101997.38;5025399;28;20052;-74
2023/02/09 04:05:56;;;;;;;49.22;25.90;;;;;;;-3.11;100.00;101994.84;5037131;28;20025;-74
2023/02/09 04:08:21;;;;;;;53.75;26.42;;;;;;;-3.16;100.00;101995.34;5034808;28;20071;-73
2023/02/09 04:10:47;;;;;;;56.17;27.00;;;;;;;-3.19;100.00;101993.81;5035777;28;20574;-73
2023/02/09 04:13:12;;;;;;;50.33;26.92;;;;;;;-3.17;100.00;101991.78;5035885;28;20079;-73
2023/02/09 04:15:38;;;;;;;53.03;25.90;;;;;;;-3.23;100.00;101987.03;5049649;28;20136;-74
2023/02/09 04:18:04;;;;;;;51.55;26.30;;;;;;;-3.26;100.00;101994.63;5030077;28;20033;-73
2023/02/09 04:20:29;;;;;;;48.13;25.90;;;;;;;-3.24;100.00;102000.75;5041063;28;20029;-73
2023/02/09 04:22:55;;;;;;;52.47;25.63;;;;;;;-3.24;100.00;102008.91;5001695;28;20041;-73
2023/02/09 04:25:20;;;;;;;49.33;25.35;;;;;;;-3.29;100.00;102012.13;5035854;28;20032;-73
2023/02/09 04:27:45;;;;;;;48.75;25.30;;;;;;;-3.28;100.00;102013.00;5017946;28;20444;-74
2023/02/09 04:30:11;;;;;;;51.97;24.85;;;;;;;-3.33;100.00;102008.06;5017847;28;20036;-73
2023/02/09 04:32:37;;;;;;;54.55;26.20;;;;;;;-3.33;100.00;102013.47;5034074;28;20030;-74
2023/02/09 04:35:02;;;;;;;46.45;24.85;;;;;;;-3.34;100.00;102010.91;5032310;28;20025;-74
2023/02/09 04:37:28;;;;;;;46.00;24.35;;;;;;;-3.41;100.00;102018.88;5017828;28;20093;-73
2023/02/09 04:39:53;;;;;;;49.17;25.27;;;;;;;-3.39;100.00;102031.28;4987423;28;20049;-74
2023/02/09 04:42:19;;;;;;;50.60;25.10;;;;;;;-3.43;100.00;102035.34;5018600;28;20045;-74
2023/02/09 04:44:44;;;;;;;45.47;24.30;;;;;;;-3.43;100.00;102040.78;5001119;28;20489;-74
2023/02/09 04:47:10;;;;;;;51.17;25.38;;;;;;;-3.40;100.00;102048.63;5050364;28;20032;-73
2023/02/09 04:49:35;;;;;;;54.20;26.77;;;;;;;-3.46;100.00;102041.09;5032604;28;20029;-74
2023/02/09 04:52:01;;;;;;;49.70;24.77;;;;;;;-3.43;100.00;102048.94;5028875;28;20078;-74
2023/02/09 04:54:26;;;;;;;49.28;25.30;;;;;;;-3.51;100.00;102048.03;5035471;28;20033;-74
2023/02/09 04:59:33;;;;;;;53.50;25.15;;;;;;;-3.48;100.00;102045.00;5034083;28;20034;-74
2023/02/09 04:59:39;;;;;;;52.20;25.98;;;;;;;-3.51;100.00;102051.63;5037937;28;20017;-74
2023/02/09 05:02:04;;;;;;;50.75;24.88;;;;;;;-3.46;100.00;102062.00;5024873;28;20026;-73
2023/02/09 05:04:30;;;;;;;49.42;25.65;;;;;;;-3.53;100.00;102061.81;5034093;28;20371;-74
2023/02/09 05:06:55;;;;;;;47.25;24.92;;;;;;;-3.54;100.00;102059.25;5017674;28;20033;-74
2023/02/09 05:09:21;;;;;;;52.15;26.20;;;;;;;-3.54;100.00;102070.09;5011385;28;20028;-74
2023/02/09 05:11:46;;;;;;;48.53;25.20;;;;;;;-3.57;100.00;102076.72;5045392;28;20489;-74
2023/02/09 05:14:12;;;;;;;49.60;25.75;;;;;;;-3.57;100.00;102070.44;5018541;28;20021;-73
2023/02/09 05:16:37;;;;;;;49.33;24.92;;;;;;;-3.59;100.00;102070.63;5007405;28;20044;-74
2023/02/09 05:19:03;;;;;;;53.03;25.92;;;;;;;-3.63;100.00;102080.94;5021081;28;20028;-74
2023/02/09 05:21:28;;;;;;;50.20;26.00;;;;;;;-3.64;100.00;102071.09;5043652;28;20033;-73
2023/02/09 05:23:54;;;;;;;50.00;25.40;;;;;;;-3.63;100.00;102075.50;4987963;28;20033;-74
2023/02/09 05:26:19;;;;;;;48.58;25.77;;;;;;;-3.64;100.00;102076.53;5017218;28;20470;-74
2023/02/09 05:28:45;;;;;;;52.25;27.05;;;;;;;-3.65;100.00;102082.97;5000927;28;20034;-74
2023/02/09 05:31:10;;;;;;;59.58;26.52;;;;;;;-3.66;100.00;102080.41;5017119;28;20030;-74
2023/02/09 05:33:36;;;;;;;55.45;25.70;;;;;;;-3.68;100.00;102077.84;5017204;28;20033;-74
2023/02/09 05:36:07;;;;;;;51.63;26.38;;;;;;;-3.68;100.00;102087.88;5017242;28;20099;-74
2023/02/09 05:38:33;;;;;;;43.13;20.30;;;;;;;-3.74;100.00;102094.78;5037607;28;20089;-74
2023/02/09 05:41:05;;;;;;;54.47;26.98;;;;;;;-3.71;100.00;102093.63;5026666;28;20785;-74
2023/02/09 05:43:31;;;;;;;54.97;26.77;;;;;;;-3.71;100.00;102099.06;5017246;28;20113;-73
2023/02/09 05:45:56;;;;;;;52.47;26.65;;;;;;;-3.71;100.00;102107.19;5025764;28;20034;-74
2023/02/09 05:48:22;;;;;;;52.45;26.48;;;;;;;-3.71;100.00;102107.19;5017572;28;20037;-75
2023/02/09 05:50:47;;;;;;;50.92;25.13;;;;;;;-3.72;100.00;102110.94;5025722;28;20026;-73
2023/02/09 05:53:13;;;;;;;55.80;26.38;;;;;;;-3.73;100.00;102114.63;5030880;28;20025;-74
2023/02/09 05:55:38;;;;;;;56.70;26.88;;;;;;;-3.73;100.00;102120.06;5033535;28;20048;-74
2023/02/09 05:58:04;;;;;;;52.35;24.98;;;;;;;-3.75;100.00;102124.84;5018867;28;20517;-74
2023/02/09 06:00:29;;;;;;;48.72;25.00;;;;;;;-3.72;100.00;102124.50;5004190;28;20509;-74
2023/02/09 06:02:55;;;;;;;52.63;26.40;;;;;;;-3.74;100.00;102131.97;4987802;28;20529;-73
2023/02/09 06:05:21;;;;;;;54.58;27.20;;;;;;;-3.73;100.00;102136.38;5006273;28;20486;-74
2023/02/09 06:07:47;;;;;;;50.25;25.85;;;;;;;-3.75;100.00;102139.25;5020488;28;20034;-74
2023/02/09 06:10:12;;;;;;;50.35;25.83;;;;;;;-3.72;100.00;102148.94;5007506;28;20434;-73
2023/02/09 06:12:38;;;;;;;51.92;26.17;;;;;;;-3.70;100.00;102146.94;5020852;28;20072;-74
2023/02/09 06:15:04;;;;;;;51.42;26.23;;;;;;;-3.70;100.00;102146.94;4998518;28;20506;-73
2023/02/09 06:17:29;;;;;;;53.78;25.67;;;;;;;-3.71;100.00;102151.47;5022559;28;20548;-73
2023/02/09 06:19:55;;;;;;;50.25;24.58;;;;;;;-3.64;100.00;102147.13;5020400;28;20033;-73
2023/02/09 06:22:20;;;;;;;50.15;25.33;;;;;;;-3.63;100.00;102145.25;5036722;28;20033;-73
2023/02/09 06:24:46;;;;;;;51.30;25.20;;;;;;;-3.61;100.00;102151.38;5027370;28;20033;-73
2023/02/09 06:27:12;;;;;;;47.25;25.08;;;;;;;-3.56;100.00;102143.63;5051135;28;20045;-74
2023/02/09 06:29:37;;;;;;;53.25;26.17;;;;;;;-3.53;100.00;102137.88;5036497;28;20057;-74
2023/02/09 06:32:03;;;;;;;49.38;25.23;;;;;;;-3.46;100.00;102138.91;5033268;28;20083;-73
2023/02/09 06:34:29;;;;;;;48.95;25.08;;;;;;;-3.41;100.00;102141.97;5011051;28;20026;-73
2023/02/09 06:36:54;;;;;;;49.45;26.70;;;;;;;-3.40;100.00;102138.28;5017678;28;20037;-74
2023/02/09 06:39:20;;;;;;;53.58;28.23;;;;;;;-3.30;100.00;102137.28;5012400;28;20062;-74
2023/02/09 06:41:45;;;;;;;52.95;27.92;;;;;;;-3.27;100.00;102145.13;5027049;28;20087;-73
2023/02/09 06:44:11;;;;;;;51.67;26.85;;;;;;;-3.25;100.00;102135.78;5011311;28;20684;-73
2023/02/09 06:46:37;;;;;;;55.92;28.67;;;;;;;-3.18;100.00;102146.84;5049126;28;20040;-73
2023/02/09 06:49:03;;;;;;;53.40;27.33;;;;;;;-3.14;100.00;102150.94;5003628;28;20026;-73
2023/02/09 06:51:28;;;;;;;53.88;27.55;;;;;;;-3.09;100.00;102156.75;5033243;28;20030;-73
2023/02/09 06:53:54;;;;;;;56.10;27.67;;;;;;;-3.07;100.00;102165.56;5049020;28;20086;-73
2023/02/09 06:56:19;;;;;;;58.08;28.13;;;;;;;-3.04;100.00;102170.69;5038392;28;20037;-73
2023/02/09 06:58:45;;;;;;;53.17;27.17;;;;;;;-3.01;100.00;102170.38;5027246;28;20557;-73
2023/02/09 07:01:11;;;;;;;50.60;25.77;;;;;;;-2.94;100.00;102182.28;5003135;28;20072;-73
2023/02/09 07:03:37;;;;;;;48.25;24.90;;;;;;;-2.90;100.00;102187.38;5035852;28;20033;-73
2023/02/09 07:06:11;;;;;;;49.97;26.33;;;;;;;-2.86;100.00;102191.50;5019633;28;20390;-73
2023/02/09 07:08:36;;;;;;;50.42;26.42;;;;;;;-2.83;100.00;102188.44;5020274;28;20167;-73
2023/02/09 07:11:05;;;;;;;53.25;26.33;;;;;;;-2.82;100.00;102188.25;5002302;28;20055;-73
2023/02/09 07:13:31;;;;;;;52.50;27.38;;;;;;;-2.79;100.00;102189.81;5019492;28;20063;-73
2023/02/09 07:15:57;;;;;;;46.95;25.02;;;;;;;-2.74;100.00;102193.72;5029712;28;20112;-73
2023/02/09 07:18:23;;;;;;;49.53;26.20;;;;;;;-2.72;100.00;102188.97;5038855;28;20033;-73
2023/02/09 07:20:55;;;;;;;47.60;25.38;;;;;;;-2.67;100.00;102193.06;5021354;28;20026;-73
2023/02/09 07:23:21;;;;;;;49.13;26.08;;;;;;;-2.69;100.00;102195.97;5019241;28;20493;-73
2023/02/09 07:25:46;;;;;;;47.47;25.23;;;;;;;-2.66;100.00;102198.34;5035266;28;20056;-69
2023/02/09 07:28:12;;;;;;;54.15;26.38;;;;;;;-2.66;100.00;102192.91;5035541;28;20057;-72
2023/02/09 07:30:40;;;;;;;48.22;24.92;;;;;;;-2.64;100.00;102204.47;5031864;28;20060;-73
2023/02/09 07:33:07;;;;;;;50.88;24.85;;;;;;;-2.60;100.00;102208.56;5011463;28;20116;-73
2023/02/09 07:35:32;;;;;;;48.35;24.67;;;;;;;-2.60;100.00;102211.28;5000285;28;20021;-73
2023/02/09 07:37:58;;;;;;;50.25;24.58;;;;;;;-2.59;100.00;102214.84;5019019;28;20026;-73
2023/02/09 07:40:23;;;;;;;48.05;24.00;;;;;;;-2.59;100.00;102213.00;5019175;28;20041;-73
2023/02/09 07:42:50;;;;;;;47.13;24.70;;;;;;;-2.58;100.00;102208.41;5047563;28;20025;-73
2023/02/09 07:45:16;;;;;;;47.42;25.83;;;;;;;-2.57;100.00;102215.53;5035306;28;20037;-73
2023/02/09 07:47:41;;;;;;;51.58;26.77;;;;;;;-2.59;100.00;102218.44;5018372;28;20374;-73
2023/02/09 07:50:07;;;;;;;54.10;25.95;;;;;;;-2.59;100.00;102215.72;5000964;28;20041;-73
2023/02/09 07:52:32;;;;;;;46.85;24.65;;;;;;;-2.52;100.00;102219.47;5039533;28;20033;-73
2023/02/09 07:54:58;;;;;;;50.17;26.05;;;;;;;-2.53;100.00;102225.09;5051698;28;20079;-73
2023/02/09 07:57:23;;;;;;;53.40;26.38;;;;;;;-2.51;100.00;102223.91;5042479;28;20040;-73
2023/02/09 07:59:49;;;;;;;52.03;25.27;;;;;;;-2.47;100.00;102222.53;5034591;28;20030;-74
2023/02/09 08:02:17;;;;;;;51.08;25.10;;;;;;;-2.43;100.00;102225.78;5027353;28;20037;-73
2023/02/09 08:04:43;;;;;;;49.67;25.17;;;;;;;-2.38;100.00;102226.13;5034625;28;20037;-73
2023/02/09 08:07:08;;;;;;;47.83;24.20;;;;;;;-2.34;100.00;102235.69;5027947;28;20033;-73
2023/02/09 08:09:34;;;;;;;50.58;26.00;;;;;;;-2.30;100.00;102234.31;5031428;28;20025;-73
2023/02/09 08:12:03;;;;;;;48.75;24.70;;;;;;;-2.23;100.00;102229.03;5018351;28;20036;-73
2023/02/09 08:14:49;;;;;;;46.88;24.65;;;;;;;-2.18;100.00;102247.59;5040193;28;20059;-73
2023/02/09 08:17:20;;;;;;;47.08;25.92;;;;;;;-2.11;100.00;102249.50;5038206;28;20041;-73
2023/02/09 08:20:01;;;;;;;;;;;;;;;-2.06;100.00;102241.69;5035394;28;20056;-73
2023/02/09 08:22:27;;;;;;;48.80;25.42;;;;;;;-1.99;100.00;102246.44;5065517;28;19909;-73
2023/02/09 08:24:53;;;;;;;48.78;25.40;;;;;;;-1.91;100.00;102249.19;5026471;28;20104;-73
2023/02/09 08:27:18;;;;;;;48.00;24.98;;;;;;;-1.87;100.00;102253.25;5001467;28;20526;-73
2023/02/09 08:29:44;;;;;;;49.25;25.52;;;;;;;-1.80;100.00;102252.41;5034340;28;20030;-72
2023/02/09 08:32:09;;;;;;;51.33;26.33;;;;;;;-1.73;100.00;102262.63;5019329;28;20025;-73
2023/02/09 08:34:35;;;;;;;49.35;25.45;;;;;;;-1.67;100.00;102253.75;5034298;28;20056;-73
2023/02/09 08:37:00;;;;;;;48.97;25.45;;;;;;;-1.61;100.00;102255.81;5048971;28;20040;-73
2023/02/09 08:39:26;;;;;;;48.65;25.85;;;;;;;-1.55;100.00;102252.41;5030867;28;20053;-73
2023/02/09 08:41:51;;;;;;;48.53;25.80;;;;;;;-1.50;100.00;102252.75;5017430;28;20025;-72
2023/02/09 08:44:17;;;;;;;45.78;24.73;;;;;;;-1.44;100.00;102251.22;5029269;28;20493;-72
2023/02/09 08:46:42;;;;;;;46.28;24.65;;;;;;;-1.38;100.00;102242.34;5016583;28;20045;-73
2023/02/09 08:49:08;;;;;;;48.00;25.67;;;;;;;-1.30;100.00;102241.47;5022152;28;20037;-73
2023/02/09 08:51:33;;;;;;;47.55;25.92;;;;;;;-1.23;100.00;102248.78;5019485;28;20397;-73
2023/02/09 08:53:59;;;;;;;49.08;25.20;;;;;;;-1.16;100.00;102249.78;5040440;28;20025;-73
2023/02/09 08:56:25;;;;;;;51.70;25.73;;;;;;;-1.07;100.00;102255.22;5042899;28;20048;-73
2023/02/09 08:58:50;;;;;;;49.00;26.00;;;;;;;-0.99;100.00;102260.66;5033353;28;20589;-72
2023/02/09 09:01:16;;;;;;;51.30;26.38;;;;;;;-0.90;100.00;102265.06;5046219;28;20040;-72
2023/02/09 09:03:41;;;;;;;55.10;26.23;;;;;;;-0.81;100.00;102258.53;5026855;28;20032;-72
2023/02/09 09:06:08;;;;;;;47.72;25.58;;;;;;;-0.72;100.00;102259.38;5024602;28;20037;-73
2023/02/09 09:08:33;;;;;;;53.33;28.70;;;;;;;-0.62;100.00;102257.25;5017493;28;20030;-73
2023/02/09 09:10:59;;;;;;;54.15;27.75;;;;;;;-0.54;100.00;102256.38;5017486;28;20044;-72
2023/02/09 09:13:25;;;;;;;61.25;30.70;;;;;;;-0.43;100.00;102252.41;5033773;28;20021;-73
2023/02/09 09:15:51;;;;;;;67.10;35.15;;;;;;;-0.32;100.00;102252.84;5048714;28;20036;-73
2023/02/09 09:18:17;;;;;;;70.95;37.00;;;;;;;-0.18;100.00;102258.59;5024558;28;20037;-73
2023/02/09 09:20:42;;;;;;;65.60;32.25;;;;;;;-0.10;100.00;102255.81;5004162;28;20053;-72
2023/02/09 09:23:08;;;;;;;71.20;37.42;;;;;;;0.04;100.00;102257.75;5000864;28;20084;-72
2023/02/09 09:25:33;;;;;;;71.43;35.92;;;;;;;0.16;100.00;102258.16;4997693;28;20040;-72
2023/02/09 09:27:59;;;;;;;75.78;39.38;;;;;;;0.31;100.00;102263.72;5024962;28;20061;-72
2023/02/09 09:30:24;;;;;;;75.95;39.63;;;;;;;0.44;100.00;102258.44;5030182;28;20034;-72
2023/02/09 09:32:50;;;;;;;64.18;35.10;;;;;;;0.53;100.00;102251.00;5033523;28;20099;-72
2023/02/09 09:35:15;;;;;;;81.22;41.55;;;;;;;0.69;100.00;102256.34;5004593;28;20029;-72
2023/02/09 09:37:41;;;;;;;69.90;39.50;;;;;;;0.75;100.00;102258.31;5010872;28;20551;-72
2023/02/09 09:40:06;;;;;;;79.40;41.28;;;;;;;0.88;100.00;102253.06;5037970;28;20050;-72
2023/02/09 09:42:37;;;;;;;88.13;45.10;;;;;;;1.05;100.00;102270.16;4997235;28;20555;-72
2023/02/09 09:45:04;;;;;;;83.40;44.50;;;;;;;1.18;100.00;102261.28;5004991;28;20147;-72
2023/02/09 09:47:37;;;;;;;83.72;44.42;;;;;;;1.32;100.00;102278.75;5013567;28;20025;-72
2023/02/09 09:50:19;;;;;;;79.15;42.53;;;;;;;1.45;100.00;102292.63;5035931;28;20489;-73
2023/02/09 09:52:53;;;;;;;75.32;38.80;;;;;;;1.64;100.00;102299.38;5022274;28;20078;-72
2023/02/09 09:55:21;;;;;;;80.45;42.78;;;;;;;1.78;100.00;102297.66;5029763;28;20026;-72
2023/02/09 09:57:47;;;;;;;68.28;38.38;;;;;;;1.91;100.00;102306.03;5037178;28;20113;-72
2023/02/09 10:00:24;;;;;;;72.00;39.60;;;;;;;2.08;100.00;102301.16;5020722;28;20025;-72
2023/02/09 10:02:49;;;;;;;74.32;41.42;;;;;;;2.19;100.00;102305.28;5033486;28;20067;-72
2023/02/09 10:05:24;;;;;;;82.10;44.45;;;;;;;2.32;100.00;102308.19;5018136;28;20025;-75
2023/02/09 10:08:06;;;;;;;82.28;45.50;;;;;;;2.47;100.00;102311.69;5036948;28;20032;-74
2023/02/09 10:10:53;;;;;;;74.82;42.92;;;;;;;2.59;100.00;102301.06;5050260;28;20089;-73
2023/02/09 10:13:23;;;;;;;75.80;43.25;;;;;;;2.71;100.00;102308.75;5040923;28;20029;-71
2023/02/09 10:15:53;;;;;;;74.07;43.08;;;;;;;2.80;100.00;102299.31;5053174;28;20025;-73
2023/02/09 10:18:24;;;;;;;71.78;39.97;;;;;;;2.91;100.00;102307.84;5068237;28;20032;-74
2023/02/09 10:20:55;;;;;;;70.68;39.45;;;;;;;2.99;100.00;102301.38;5010563;28;20025;-74
2023/02/09 10:23:26;;;;;;;68.05;39.90;;;;;;;3.16;100.00;102301.06;5036864;28;20033;-74
2023/02/09 10:25:53;;;;;;;74.68;42.47;;;;;;;3.30;100.00;102308.34;5033519;28;20095;-74
2023/02/09 10:28:26;;;;;;;68.88;40.00;;;;;;;3.41;100.00;102313.25;5036565;28;20041;-74
2023/02/09 10:30:54;;;;;;;74.70;41.20;;;;;;;3.52;100.00;102309.09;5045896;28;20117;-74
2023/02/09 10:33:19;;;;;;;69.40;39.17;;;;;;;3.62;100.00;102312.31;5000590;28;20033;-74
2023/02/09 10:36:07;;;;;;;66.45;38.30;;;;;;;3.70;100.00;102317.63;5024166;28;20032;-74
2023/02/09 10:38:33;;;;;;;59.83;35.67;;;;;;;3.80;100.00;102314.53;5017791;28;20076;-74
2023/02/09 10:40:59;;;;;;;58.03;34.13;;;;;;;3.89;100.00;102320.69;4994462;28;20065;-74
2023/02/09 10:43:30;;;;;;;56.33;34.10;;;;;;;3.96;100.00;102319.66;5039553;28;20028;-74
2023/02/09 10:45:57;;;;;;;56.28;33.47;;;;;;;4.05;100.00;102316.72;5024787;28;20450;-74
2023/02/09 10:48:24;;;;;;;53.88;32.83;;;;;;;4.15;100.00;102323.53;5019564;28;20080;-74
2023/02/09 10:51:00;;;;;;;59.97;34.42;;;;;;;4.25;100.00;102326.72;5056061;28;20036;-74
2023/02/09 10:53:36;;;;;;;62.20;36.85;;;;;;;4.37;100.00;102326.94;5019210;28;20068;-74
2023/02/09 10:56:06;;;;;;;62.28;35.58;;;;;;;4.47;100.00;102335.66;5057280;28;20531;-74
2023/02/09 10:58:33;;;;;;;64.53;37.03;;;;;;;4.57;100.00;102334.38;5057126;28;20393;-74
2023/02/09 11:01:08;;;;;;;64.30;36.88;;;;;;;4.65;100.00;102335.06;5039363;28;20032;-74
2023/02/09 11:03:34;;;;;;;63.30;37.67;;;;;;;4.75;100.00;102331.88;5047565;28;20057;-74
2023/02/09 11:06:17;;;;;;;59.80;34.22;;;;;;;4.83;100.00;102328.06;5049405;28;20055;-74
2023/02/09 11:08:50;;;;;;;54.88;31.60;;;;;;;4.90;100.00;102335.28;5012023;28;20033;-74
2023/02/09 11:11:34;;;;;;;55.95;33.13;;;;;;;4.98;100.00;102330.59;5043001;28;20033;-74
2023/02/09 11:14:00;;;;;;;51.72;29.38;;;;;;;5.06;100.00;102311.97;5042240;28;20030;-74